sensor_id;sensor_type;location;lat;lon;timestamp;P1;durP1;ratioP1;P2;durP2;ratioP2
60068;SDS011;45945;53.350;55.922;2022-08-21T00:00:41;23.98;;;17.50;;
60068;SDS011;45945;53.350;55.922;2022-08-21T00:01:42;21.73;;;16.77;;
60068;SDS011;45945;53.350;55.922;2022-08-21T00:02:46;25.33;;;17.85;;
60068;SDS011;45945;53.350;55.922;2022-08-21T00:03:49;25.60;;;18.33;;
60068;SDS011;45945;53.350;55.922;2022-08-21T00:04:51;27.73;;;18.80;;
60068;SDS011;45945;53.350;55.922;2022-08-21T00:05:52;25.58;;;18.35;;
60068;SDS011;45945;53.350;55.922;2022-08-21T00:06:53;24.85;;;17.95;;
60068;SDS011;45945;53.350;55.922;2022-08-21T00:07:55;24.92;;;19.35;;
60068;SDS011;45945;53.350;55.922;2022-08-21T00:08:56;30.63;;;19.42;;
60068;SDS011;45945;53.350;55.922;2022-08-21T00:09:57;30.70;;;21.02;;
60068;SDS011;45945;53.350;55.922;2022-08-21T00:10:58;32.53;;;20.58;;
60068;SDS011;45945;53.350;55.922;2022-08-21T00:11:59;32.35;;;21.85;;
60068;SDS011;45945;53.350;55.922;2022-08-21T00:13:01;37.33;;;28.60;;
60068;SDS011;45945;53.350;55.922;2022-08-21T00:14:07;49.92;;;44.88;;
60068;SDS011;45945;53.350;55.922;2022-08-21T00:15:10;53.28;;;47.55;;
60068;SDS011;45945;53.350;55.922;2022-08-21T00:16:13;41.55;;;34.75;;
60068;SDS011;45945;53.350;55.922;2022-08-21T00:17:14;40.78;;;33.65;;
60068;SDS011;45945;53.350;55.922;2022-08-21T00:18:16;40.85;;;31.73;;
60068;SDS011;45945;53.350;55.922;2022-08-21T00:19:18;41.47;;;35.40;;
60068;SDS011;45945;53.350;55.922;2022-08-21T00:20:20;37.63;;;28.63;;
60068;SDS011;45945;53.350;55.922;2022-08-21T00:21:21;40.25;;;31.95;;
60068;SDS011;45945;53.350;55.922;2022-08-21T00:22:22;40.92;;;31.77;;
60068;SDS011;45945;53.350;55.922;2022-08-21T00:23:23;43.88;;;32.45;;
60068;SDS011;45945;53.350;55.922;2022-08-21T00:24:25;39.13;;;30.13;;
60068;SDS011;45945;53.350;55.922;2022-08-21T00:25:26;41.08;;;31.75;;
60068;SDS011;45945;53.350;55.922;2022-08-21T00:26:28;40.60;;;30.63;;
60068;SDS011;45945;53.350;55.922;2022-08-21T00:27:29;38.67;;;30.67;;
60068;SDS011;45945;53.350;55.922;2022-08-21T00:28:30;36.30;;;30.55;;
60068;SDS011;45945;53.350;55.922;2022-08-21T00:29:31;38.28;;;28.63;;
60068;SDS011;45945;53.350;55.922;2022-08-21T00:30:33;37.35;;;29.25;;
60068;SDS011;45945;53.350;55.922;2022-08-21T00:31:34;40.53;;;28.77;;
60068;SDS011;45945;53.350;55.922;2022-08-21T00:32:37;35.03;;;27.15;;
60068;SDS011;45945;53.350;55.922;2022-08-21T00:33:39;36.03;;;25.88;;
60068;SDS011;45945;53.350;55.922;2022-08-21T00:34:40;32.83;;;26.95;;
60068;SDS011;45945;53.350;55.922;2022-08-21T00:35:41;37.42;;;29.70;;
60068;SDS011;45945;53.350;55.922;2022-08-21T00:36:43;32.20;;;25.23;;
60068;SDS011;45945;53.350;55.922;2022-08-21T00:37:44;35.15;;;26.92;;
60068;SDS011;45945;53.350;55.922;2022-08-21T00:38:45;34.88;;;28.45;;
60068;SDS011;45945;53.350;55.922;2022-08-21T00:39:46;36.63;;;27.50;;
60068;SDS011;45945;53.350;55.922;2022-08-21T00:41:53;35.60;;;29.15;;
60068;SDS011;45945;53.350;55.922;2022-08-21T00:42:55;37.15;;;29.42;;
60068;SDS011;45945;53.350;55.922;2022-08-21T00:43:56;35.58;;;29.27;;
60068;SDS011;45945;53.350;55.922;2022-08-21T00:44:57;39.85;;;28.83;;
60068;SDS011;45945;53.350;55.922;2022-08-21T00:45:59;38.15;;;28.85;;
60068;SDS011;45945;53.350;55.922;2022-08-21T00:47:02;33.60;;;28.63;;
60068;SDS011;45945;53.350;55.922;2022-08-21T00:48:03;36.75;;;27.73;;
60068;SDS011;45945;53.350;55.922;2022-08-21T00:49:05;36.63;;;29.70;;
60068;SDS011;45945;53.350;55.922;2022-08-21T00:50:08;33.42;;;24.98;;
60068;SDS011;45945;53.350;55.922;2022-08-21T00:51:15;35.60;;;27.58;;
60068;SDS011;45945;53.350;55.922;2022-08-21T00:52:25;35.72;;;27.83;;
60068;SDS011;45945;53.350;55.922;2022-08-21T00:53:29;42.47;;;26.52;;
60068;SDS011;45945;53.350;55.922;2022-08-21T00:54:31;37.35;;;27.45;;
60068;SDS011;45945;53.350;55.922;2022-08-21T00:55:33;38.40;;;28.70;;
60068;SDS011;45945;53.350;55.922;2022-08-21T00:56:36;34.53;;;25.02;;
60068;SDS011;45945;53.350;55.922;2022-08-21T00:57:42;34.65;;;24.90;;
60068;SDS011;45945;53.350;55.922;2022-08-21T00:58:47;30.38;;;22.58;;
60068;SDS011;45945;53.350;55.922;2022-08-21T00:59:49;35.38;;;23.30;;
60068;SDS011;45945;53.350;55.922;2022-08-21T01:00:54;29.80;;;22.00;;
60068;SDS011;45945;53.350;55.922;2022-08-21T01:01:55;29.77;;;21.13;;
60068;SDS011;45945;53.350;55.922;2022-08-21T01:02:56;28.73;;;20.88;;
60068;SDS011;45945;53.350;55.922;2022-08-21T01:03:59;29.80;;;19.00;;
60068;SDS011;45945;53.350;55.922;2022-08-21T01:05:00;29.63;;;18.65;;
60068;SDS011;45945;53.350;55.922;2022-08-21T01:06:02;29.73;;;19.25;;
60068;SDS011;45945;53.350;55.922;2022-08-21T01:07:04;28.42;;;18.73;;
60068;SDS011;45945;53.350;55.922;2022-08-21T01:08:06;28.02;;;17.85;;
60068;SDS011;45945;53.350;55.922;2022-08-21T01:09:08;27.98;;;18.67;;
60068;SDS011;45945;53.350;55.922;2022-08-21T01:10:09;29.17;;;17.90;;
60068;SDS011;45945;53.350;55.922;2022-08-21T01:11:11;25.48;;;17.83;;
60068;SDS011;45945;53.350;55.922;2022-08-21T01:12:12;24.27;;;17.75;;
60068;SDS011;45945;53.350;55.922;2022-08-21T01:13:14;25.17;;;18.35;;
60068;SDS011;45945;53.350;55.922;2022-08-21T01:14:17;27.58;;;18.30;;
60068;SDS011;45945;53.350;55.922;2022-08-21T01:15:20;25.30;;;17.85;;
60068;SDS011;45945;53.350;55.922;2022-08-21T01:16:24;25.98;;;17.02;;
60068;SDS011;45945;53.350;55.922;2022-08-21T01:17:25;25.52;;;17.65;;
60068;SDS011;45945;53.350;55.922;2022-08-21T01:18:27;26.98;;;17.80;;
60068;SDS011;45945;53.350;55.922;2022-08-21T01:19:29;22.77;;;16.75;;
60068;SDS011;45945;53.350;55.922;2022-08-21T01:20:30;24.63;;;16.70;;
60068;SDS011;45945;53.350;55.922;2022-08-21T01:21:32;25.63;;;16.73;;
60068;SDS011;45945;53.350;55.922;2022-08-21T01:22:33;19.58;;;16.02;;
60068;SDS011;45945;53.350;55.922;2022-08-21T01:23:35;24.30;;;16.27;;
60068;SDS011;45945;53.350;55.922;2022-08-21T01:24:38;26.50;;;16.90;;
60068;SDS011;45945;53.350;55.922;2022-08-21T01:25:39;23.40;;;15.65;;
60068;SDS011;45945;53.350;55.922;2022-08-21T01:26:40;24.58;;;16.23;;
60068;SDS011;45945;53.350;55.922;2022-08-21T01:27:43;21.52;;;16.05;;
60068;SDS011;45945;53.350;55.922;2022-08-21T01:29:01;21.05;;;15.18;;
60068;SDS011;45945;53.350;55.922;2022-08-21T01:30:18;19.42;;;13.88;;
60068;SDS011;45945;53.350;55.922;2022-08-21T01:31:23;20.40;;;14.02;;
60068;SDS011;45945;53.350;55.922;2022-08-21T01:32:25;17.58;;;12.98;;
60068;SDS011;45945;53.350;55.922;2022-08-21T01:33:26;17.90;;;13.45;;
60068;SDS011;45945;53.350;55.922;2022-08-21T01:34:27;17.98;;;13.23;;
60068;SDS011;45945;53.350;55.922;2022-08-21T01:35:28;17.92;;;13.30;;
60068;SDS011;45945;53.350;55.922;2022-08-21T01:36:30;16.77;;;13.02;;
60068;SDS011;45945;53.350;55.922;2022-08-21T01:37:32;19.00;;;13.23;;
60068;SDS011;45945;53.350;55.922;2022-08-21T01:38:33;17.08;;;12.35;;
60068;SDS011;45945;53.350;55.922;2022-08-21T01:39:34;17.45;;;12.05;;
60068;SDS011;45945;53.350;55.922;2022-08-21T01:40:36;18.27;;;12.23;;
60068;SDS011;45945;53.350;55.922;2022-08-21T01:41:37;17.65;;;12.77;;
60068;SDS011;45945;53.350;55.922;2022-08-21T01:42:39;16.80;;;11.80;;
60068;SDS011;45945;53.350;55.922;2022-08-21T01:43:42;14.82;;;10.88;;
60068;SDS011;45945;53.350;55.922;2022-08-21T01:44:43;17.33;;;11.90;;
60068;SDS011;45945;53.350;55.922;2022-08-21T01:45:45;16.98;;;11.98;;
60068;SDS011;45945;53.350;55.922;2022-08-21T01:46:46;18.67;;;11.40;;
60068;SDS011;45945;53.350;55.922;2022-08-21T01:47:49;16.45;;;12.15;;
60068;SDS011;45945;53.350;55.922;2022-08-21T01:48:50;16.20;;;11.40;;
60068;SDS011;45945;53.350;55.922;2022-08-21T01:49:51;15.73;;;11.32;;
60068;SDS011;45945;53.350;55.922;2022-08-21T01:50:53;19.90;;;11.68;;
60068;SDS011;45945;53.350;55.922;2022-08-21T01:51:54;18.42;;;12.52;;
60068;SDS011;45945;53.350;55.922;2022-08-21T01:52:55;17.38;;;12.30;;
60068;SDS011;45945;53.350;55.922;2022-08-21T01:53:56;21.08;;;13.00;;
60068;SDS011;45945;53.350;55.922;2022-08-21T01:54:56;17.33;;;11.82;;
60068;SDS011;45945;53.350;55.922;2022-08-21T01:55:57;18.38;;;12.43;;
60068;SDS011;45945;53.350;55.922;2022-08-21T01:56:59;16.73;;;12.50;;
60068;SDS011;45945;53.350;55.922;2022-08-21T01:58:01;16.42;;;11.70;;
60068;SDS011;45945;53.350;55.922;2022-08-21T01:59:03;19.33;;;13.13;;
60068;SDS011;45945;53.350;55.922;2022-08-21T02:00:05;16.98;;;12.05;;
60068;SDS011;45945;53.350;55.922;2022-08-21T02:01:13;16.13;;;11.77;;
60068;SDS011;45945;53.350;55.922;2022-08-21T02:02:14;15.90;;;11.82;;
60068;SDS011;45945;53.350;55.922;2022-08-21T02:03:15;18.55;;;12.35;;
60068;SDS011;45945;53.350;55.922;2022-08-21T02:04:16;15.90;;;11.68;;
60068;SDS011;45945;53.350;55.922;2022-08-21T02:05:17;16.42;;;12.75;;
60068;SDS011;45945;53.350;55.922;2022-08-21T02:06:19;17.50;;;12.60;;
60068;SDS011;45945;53.350;55.922;2022-08-21T02:07:20;21.48;;;12.57;;
60068;SDS011;45945;53.350;55.922;2022-08-21T02:08:22;19.08;;;13.18;;
60068;SDS011;45945;53.350;55.922;2022-08-21T02:09:23;16.98;;;12.35;;
60068;SDS011;45945;53.350;55.922;2022-08-21T02:10:26;17.13;;;12.63;;
60068;SDS011;45945;53.350;55.922;2022-08-21T02:11:30;21.33;;;13.27;;
60068;SDS011;45945;53.350;55.922;2022-08-21T02:12:33;16.25;;;12.48;;
60068;SDS011;45945;53.350;55.922;2022-08-21T02:13:34;19.40;;;13.25;;
60068;SDS011;45945;53.350;55.922;2022-08-21T02:14:35;16.30;;;12.88;;
60068;SDS011;45945;53.350;55.922;2022-08-21T02:15:36;19.05;;;13.18;;
60068;SDS011;45945;53.350;55.922;2022-08-21T02:16:37;19.00;;;13.93;;
60068;SDS011;45945;53.350;55.922;2022-08-21T02:17:40;17.02;;;13.10;;
60068;SDS011;45945;53.350;55.922;2022-08-21T02:18:43;18.08;;;13.60;;
60068;SDS011;45945;53.350;55.922;2022-08-21T02:19:44;22.73;;;14.02;;
60068;SDS011;45945;53.350;55.922;2022-08-21T02:20:46;18.25;;;12.40;;
60068;SDS011;45945;53.350;55.922;2022-08-21T02:21:48;17.52;;;13.48;;
60068;SDS011;45945;53.350;55.922;2022-08-21T02:22:49;19.17;;;13.13;;
60068;SDS011;45945;53.350;55.922;2022-08-21T02:23:50;18.58;;;13.40;;
60068;SDS011;45945;53.350;55.922;2022-08-21T02:24:51;18.13;;;13.05;;
60068;SDS011;45945;53.350;55.922;2022-08-21T02:25:52;18.15;;;13.52;;
60068;SDS011;45945;53.350;55.922;2022-08-21T02:26:54;17.90;;;13.48;;
60068;SDS011;45945;53.350;55.922;2022-08-21T02:27:55;18.98;;;13.48;;
60068;SDS011;45945;53.350;55.922;2022-08-21T02:28:57;19.17;;;13.77;;
60068;SDS011;45945;53.350;55.922;2022-08-21T02:29:58;19.58;;;14.25;;
60068;SDS011;45945;53.350;55.922;2022-08-21T02:30:59;18.60;;;14.38;;
60068;SDS011;45945;53.350;55.922;2022-08-21T02:32:01;21.83;;;14.85;;
60068;SDS011;45945;53.350;55.922;2022-08-21T02:33:03;19.77;;;13.95;;
60068;SDS011;45945;53.350;55.922;2022-08-21T02:34:04;20.42;;;14.25;;
60068;SDS011;45945;53.350;55.922;2022-08-21T02:35:06;18.67;;;13.98;;
60068;SDS011;45945;53.350;55.922;2022-08-21T02:36:08;20.05;;;14.38;;
60068;SDS011;45945;53.350;55.922;2022-08-21T02:37:11;18.50;;;14.50;;
60068;SDS011;45945;53.350;55.922;2022-08-21T02:38:14;20.10;;;14.50;;
60068;SDS011;45945;53.350;55.922;2022-08-21T02:39:17;22.55;;;15.48;;
60068;SDS011;45945;53.350;55.922;2022-08-21T02:40:19;20.90;;;15.27;;
60068;SDS011;45945;53.350;55.922;2022-08-21T02:41:24;19.45;;;15.52;;
60068;SDS011;45945;53.350;55.922;2022-08-21T02:42:25;21.80;;;16.15;;
60068;SDS011;45945;53.350;55.922;2022-08-21T02:43:27;19.13;;;15.32;;
60068;SDS011;45945;53.350;55.922;2022-08-21T02:44:28;20.05;;;16.10;;
60068;SDS011;45945;53.350;55.922;2022-08-21T02:45:29;24.42;;;16.42;;
60068;SDS011;45945;53.350;55.922;2022-08-21T02:46:31;23.48;;;16.63;;
60068;SDS011;45945;53.350;55.922;2022-08-21T02:47:32;21.95;;;16.05;;
60068;SDS011;45945;53.350;55.922;2022-08-21T02:48:33;24.38;;;17.95;;
60068;SDS011;45945;53.350;55.922;2022-08-21T02:49:35;27.98;;;18.58;;
60068;SDS011;45945;53.350;55.922;2022-08-21T02:50:39;26.75;;;18.98;;
60068;SDS011;45945;53.350;55.922;2022-08-21T02:51:42;24.85;;;18.17;;
60068;SDS011;45945;53.350;55.922;2022-08-21T02:52:43;25.50;;;19.05;;
60068;SDS011;45945;53.350;55.922;2022-08-21T02:53:46;25.95;;;19.42;;
60068;SDS011;45945;53.350;55.922;2022-08-21T02:54:48;24.77;;;19.13;;
60068;SDS011;45945;53.350;55.922;2022-08-21T02:55:49;27.33;;;18.83;;
60068;SDS011;45945;53.350;55.922;2022-08-21T02:56:51;30.17;;;20.08;;
60068;SDS011;45945;53.350;55.922;2022-08-21T02:57:53;29.98;;;20.42;;
60068;SDS011;45945;53.350;55.922;2022-08-21T02:58:55;31.98;;;20.88;;
60068;SDS011;45945;53.350;55.922;2022-08-21T02:59:56;28.05;;;20.98;;
60068;SDS011;45945;53.350;55.922;2022-08-21T03:00:57;27.38;;;19.77;;
60068;SDS011;45945;53.350;55.922;2022-08-21T03:01:58;25.42;;;18.42;;
60068;SDS011;45945;53.350;55.922;2022-08-21T03:03:00;25.73;;;19.05;;
60068;SDS011;45945;53.350;55.922;2022-08-21T03:04:01;24.13;;;18.00;;
60068;SDS011;45945;53.350;55.922;2022-08-21T03:05:02;24.65;;;18.70;;
60068;SDS011;45945;53.350;55.922;2022-08-21T03:06:05;27.42;;;19.88;;
60068;SDS011;45945;53.350;55.922;2022-08-21T03:07:08;23.02;;;17.67;;
60068;SDS011;45945;53.350;55.922;2022-08-21T03:08:12;22.70;;;18.45;;
60068;SDS011;45945;53.350;55.922;2022-08-21T03:09:15;26.33;;;18.55;;
60068;SDS011;45945;53.350;55.922;2022-08-21T03:10:16;27.02;;;19.27;;
60068;SDS011;45945;53.350;55.922;2022-08-21T03:11:17;25.02;;;19.73;;
60068;SDS011;45945;53.350;55.922;2022-08-21T03:12:20;27.70;;;19.92;;
60068;SDS011;45945;53.350;55.922;2022-08-21T03:13:21;25.63;;;19.55;;
60068;SDS011;45945;53.350;55.922;2022-08-21T03:14:23;25.42;;;18.55;;
60068;SDS011;45945;53.350;55.922;2022-08-21T03:15:24;24.50;;;19.83;;
60068;SDS011;45945;53.350;55.922;2022-08-21T03:16:25;23.63;;;19.30;;
60068;SDS011;45945;53.350;55.922;2022-08-21T03:17:26;26.17;;;19.83;;
60068;SDS011;45945;53.350;55.922;2022-08-21T03:18:27;33.08;;;26.23;;
60068;SDS011;45945;53.350;55.922;2022-08-21T03:19:28;24.45;;;19.27;;
60068;SDS011;45945;53.350;55.922;2022-08-21T03:20:29;25.75;;;21.30;;
60068;SDS011;45945;53.350;55.922;2022-08-21T03:21:32;21.35;;;18.30;;
60068;SDS011;45945;53.350;55.922;2022-08-21T03:22:34;21.90;;;15.38;;
60068;SDS011;45945;53.350;55.922;2022-08-21T03:23:35;20.45;;;16.85;;
60068;SDS011;45945;53.350;55.922;2022-08-21T03:24:36;21.73;;;18.00;;
60068;SDS011;45945;53.350;55.922;2022-08-21T03:25:38;21.38;;;14.63;;
60068;SDS011;45945;53.350;55.922;2022-08-21T03:26:39;20.35;;;16.85;;
60068;SDS011;45945;53.350;55.922;2022-08-21T03:27:40;19.95;;;12.93;;
60068;SDS011;45945;53.350;55.922;2022-08-21T03:28:41;20.52;;;15.50;;
60068;SDS011;45945;53.350;55.922;2022-08-21T03:29:42;19.48;;;13.80;;
60068;SDS011;45945;53.350;55.922;2022-08-21T03:30:44;19.98;;;15.48;;
60068;SDS011;45945;53.350;55.922;2022-08-21T03:31:46;16.75;;;13.55;;
60068;SDS011;45945;53.350;55.922;2022-08-21T03:32:47;17.83;;;15.15;;
60068;SDS011;45945;53.350;55.922;2022-08-21T03:33:52;17.35;;;15.23;;
60068;SDS011;45945;53.350;55.922;2022-08-21T03:34:55;21.50;;;15.82;;
60068;SDS011;45945;53.350;55.922;2022-08-21T03:36:00;17.55;;;15.15;;
60068;SDS011;45945;53.350;55.922;2022-08-21T03:37:05;19.92;;;15.50;;
60068;SDS011;45945;53.350;55.922;2022-08-21T03:38:07;19.63;;;15.32;;
60068;SDS011;45945;53.350;55.922;2022-08-21T03:39:08;17.40;;;15.13;;
60068;SDS011;45945;53.350;55.922;2022-08-21T03:40:11;16.75;;;14.80;;
60068;SDS011;45945;53.350;55.922;2022-08-21T03:41:14;16.58;;;13.70;;
60068;SDS011;45945;53.350;55.922;2022-08-21T03:42:15;19.20;;;14.82;;
60068;SDS011;45945;53.350;55.922;2022-08-21T03:43:18;17.05;;;15.25;;
60068;SDS011;45945;53.350;55.922;2022-08-21T03:44:19;18.02;;;14.10;;
60068;SDS011;45945;53.350;55.922;2022-08-21T03:45:20;20.92;;;18.08;;
60068;SDS011;45945;53.350;55.922;2022-08-21T03:46:22;60.85;;;54.53;;
60068;SDS011;45945;53.350;55.922;2022-08-21T03:47:23;17.50;;;13.27;;
60068;SDS011;45945;53.350;55.922;2022-08-21T03:48:24;17.48;;;15.45;;
60068;SDS011;45945;53.350;55.922;2022-08-21T03:49:25;16.40;;;13.75;;
60068;SDS011;45945;53.350;55.922;2022-08-21T03:50:29;17.98;;;15.98;;
60068;SDS011;45945;53.350;55.922;2022-08-21T03:51:36;20.27;;;17.95;;
60068;SDS011;45945;53.350;55.922;2022-08-21T03:52:37;17.40;;;14.55;;
60068;SDS011;45945;53.350;55.922;2022-08-21T03:53:39;21.17;;;16.25;;
60068;SDS011;45945;53.350;55.922;2022-08-21T03:54:40;18.85;;;15.07;;
60068;SDS011;45945;53.350;55.922;2022-08-21T03:55:41;17.15;;;15.30;;
60068;SDS011;45945;53.350;55.922;2022-08-21T03:56:42;17.15;;;15.23;;
60068;SDS011;45945;53.350;55.922;2022-08-21T03:57:43;20.23;;;14.68;;
60068;SDS011;45945;53.350;55.922;2022-08-21T03:58:44;16.60;;;13.75;;
60068;SDS011;45945;53.350;55.922;2022-08-21T03:59:45;16.13;;;14.40;;
60068;SDS011;45945;53.350;55.922;2022-08-21T04:00:47;15.73;;;13.52;;
60068;SDS011;45945;53.350;55.922;2022-08-21T04:01:54;15.00;;;13.38;;
60068;SDS011;45945;53.350;55.922;2022-08-21T04:02:57;15.25;;;13.45;;
60068;SDS011;45945;53.350;55.922;2022-08-21T04:03:58;16.48;;;13.32;;
60068;SDS011;45945;53.350;55.922;2022-08-21T04:04:59;16.38;;;14.30;;
60068;SDS011;45945;53.350;55.922;2022-08-21T04:06:00;15.80;;;13.20;;
60068;SDS011;45945;53.350;55.922;2022-08-21T04:07:02;17.13;;;12.55;;
60068;SDS011;45945;53.350;55.922;2022-08-21T04:08:04;14.27;;;12.75;;
60068;SDS011;45945;53.350;55.922;2022-08-21T04:09:06;14.88;;;12.93;;
60068;SDS011;45945;53.350;55.922;2022-08-21T04:10:07;14.93;;;13.13;;
60068;SDS011;45945;53.350;55.922;2022-08-21T04:11:08;16.13;;;13.02;;
60068;SDS011;45945;53.350;55.922;2022-08-21T04:12:13;17.13;;;13.02;;
60068;SDS011;45945;53.350;55.922;2022-08-21T04:13:13;15.43;;;12.50;;
60068;SDS011;45945;53.350;55.922;2022-08-21T04:14:15;16.38;;;12.63;;
60068;SDS011;45945;53.350;55.922;2022-08-21T04:15:17;15.07;;;11.57;;
60068;SDS011;45945;53.350;55.922;2022-08-21T04:16:18;13.98;;;11.80;;
60068;SDS011;45945;53.350;55.922;2022-08-21T04:17:19;14.38;;;12.85;;
60068;SDS011;45945;53.350;55.922;2022-08-21T04:18:20;14.82;;;13.25;;
60068;SDS011;45945;53.350;55.922;2022-08-21T04:19:21;14.45;;;12.93;;
60068;SDS011;45945;53.350;55.922;2022-08-21T04:20:23;16.77;;;13.50;;
60068;SDS011;45945;53.350;55.922;2022-08-21T04:21:25;15.18;;;13.27;;
60068;SDS011;45945;53.350;55.922;2022-08-21T04:22:26;16.55;;;13.10;;
60068;SDS011;45945;53.350;55.922;2022-08-21T04:23:27;14.82;;;12.75;;
60068;SDS011;45945;53.350;55.922;2022-08-21T04:24:28;15.07;;;12.45;;
60068;SDS011;45945;53.350;55.922;2022-08-21T04:25:30;14.95;;;12.95;;
60068;SDS011;45945;53.350;55.922;2022-08-21T04:26:32;13.90;;;12.50;;
60068;SDS011;45945;53.350;55.922;2022-08-21T04:27:34;15.10;;;12.70;;
60068;SDS011;45945;53.350;55.922;2022-08-21T04:28:35;15.63;;;13.13;;
60068;SDS011;45945;53.350;55.922;2022-08-21T04:29:36;15.80;;;12.48;;
60068;SDS011;45945;53.350;55.922;2022-08-21T04:30:37;13.13;;;11.32;;
60068;SDS011;45945;53.350;55.922;2022-08-21T04:31:38;15.32;;;11.75;;
60068;SDS011;45945;53.350;55.922;2022-08-21T04:32:41;14.70;;;13.20;;
60068;SDS011;45945;53.350;55.922;2022-08-21T04:33:44;17.73;;;14.10;;
60068;SDS011;45945;53.350;55.922;2022-08-21T04:34:45;16.58;;;14.75;;
60068;SDS011;45945;53.350;55.922;2022-08-21T04:35:46;18.50;;;13.77;;
60068;SDS011;45945;53.350;55.922;2022-08-21T04:36:49;14.63;;;13.13;;
60068;SDS011;45945;53.350;55.922;2022-08-21T04:37:50;15.52;;;13.93;;
60068;SDS011;45945;53.350;55.922;2022-08-21T04:38:51;17.58;;;14.45;;
60068;SDS011;45945;53.350;55.922;2022-08-21T04:39:52;15.18;;;12.85;;
60068;SDS011;45945;53.350;55.922;2022-08-21T04:40:53;18.98;;;14.75;;
60068;SDS011;45945;53.350;55.922;2022-08-21T04:41:54;16.80;;;13.18;;
60068;SDS011;45945;53.350;55.922;2022-08-21T04:42:56;15.27;;;12.55;;
60068;SDS011;45945;53.350;55.922;2022-08-21T04:44:02;18.30;;;13.18;;
60068;SDS011;45945;53.350;55.922;2022-08-21T04:45:04;15.82;;;13.10;;
60068;SDS011;45945;53.350;55.922;2022-08-21T04:46:05;15.88;;;13.82;;
60068;SDS011;45945;53.350;55.922;2022-08-21T04:47:06;16.20;;;14.60;;
60068;SDS011;45945;53.350;55.922;2022-08-21T04:48:09;16.60;;;14.80;;
60068;SDS011;45945;53.350;55.922;2022-08-21T04:49:11;16.63;;;14.48;;
60068;SDS011;45945;53.350;55.922;2022-08-21T04:50:12;17.02;;;14.38;;
60068;SDS011;45945;53.350;55.922;2022-08-21T04:51:31;16.38;;;13.50;;
60068;SDS011;45945;53.350;55.922;2022-08-21T04:52:35;15.20;;;12.20;;
60068;SDS011;45945;53.350;55.922;2022-08-21T04:53:43;15.80;;;12.63;;
60068;SDS011;45945;53.350;55.922;2022-08-21T04:54:47;15.75;;;12.73;;
60068;SDS011;45945;53.350;55.922;2022-08-21T04:55:52;17.00;;;14.18;;
60068;SDS011;45945;53.350;55.922;2022-08-21T04:57:01;14.68;;;12.93;;
60068;SDS011;45945;53.350;55.922;2022-08-21T04:58:06;13.85;;;11.85;;
60068;SDS011;45945;53.350;55.922;2022-08-21T04:59:16;15.00;;;12.93;;
60068;SDS011;45945;53.350;55.922;2022-08-21T05:00:22;14.13;;;12.63;;
60068;SDS011;45945;53.350;55.922;2022-08-21T05:01:25;13.80;;;12.45;;
60068;SDS011;45945;53.350;55.922;2022-08-21T05:02:29;15.77;;;13.35;;
60068;SDS011;45945;53.350;55.922;2022-08-21T05:03:33;15.20;;;12.77;;
60068;SDS011;45945;53.350;55.922;2022-08-21T05:04:37;14.05;;;12.55;;
60068;SDS011;45945;53.350;55.922;2022-08-21T05:05:42;15.30;;;13.70;;
60068;SDS011;45945;53.350;55.922;2022-08-21T05:06:44;13.80;;;12.18;;
60068;SDS011;45945;53.350;55.922;2022-08-21T05:07:47;15.93;;;13.05;;
60068;SDS011;45945;53.350;55.922;2022-08-21T05:08:48;14.13;;;12.38;;
60068;SDS011;45945;53.350;55.922;2022-08-21T05:09:53;14.85;;;13.32;;
60068;SDS011;45945;53.350;55.922;2022-08-21T05:10:54;14.40;;;12.88;;
60068;SDS011;45945;53.350;55.922;2022-08-21T05:11:55;15.85;;;12.45;;
60068;SDS011;45945;53.350;55.922;2022-08-21T05:12:57;14.70;;;13.20;;
60068;SDS011;45945;53.350;55.922;2022-08-21T05:13:58;14.43;;;12.88;;
60068;SDS011;45945;53.350;55.922;2022-08-21T05:14:59;16.75;;;13.52;;
60068;SDS011;45945;53.350;55.922;2022-08-21T05:16:00;15.02;;;12.48;;
60068;SDS011;45945;53.350;55.922;2022-08-21T05:17:04;15.82;;;13.25;;
60068;SDS011;45945;53.350;55.922;2022-08-21T05:18:05;15.35;;;12.93;;
60068;SDS011;45945;53.350;55.922;2022-08-21T05:19:31;13.95;;;12.25;;
60068;SDS011;45945;53.350;55.922;2022-08-21T05:20:32;13.07;;;11.38;;
60068;SDS011;45945;53.350;55.922;2022-08-21T05:21:39;15.00;;;13.05;;
60068;SDS011;45945;53.350;55.922;2022-08-21T05:22:42;14.73;;;12.95;;
60068;SDS011;45945;53.350;55.922;2022-08-21T05:23:43;15.35;;;12.70;;
60068;SDS011;45945;53.350;55.922;2022-08-21T05:24:44;16.38;;;12.82;;
60068;SDS011;45945;53.350;55.922;2022-08-21T05:25:45;14.20;;;12.50;;
60068;SDS011;45945;53.350;55.922;2022-08-21T05:26:46;14.50;;;13.00;;
60068;SDS011;45945;53.350;55.922;2022-08-21T05:27:47;14.32;;;12.35;;
60068;SDS011;45945;53.350;55.922;2022-08-21T05:28:48;14.30;;;12.80;;
60068;SDS011;45945;53.350;55.922;2022-08-21T05:29:49;14.57;;;11.85;;
60068;SDS011;45945;53.350;55.922;2022-08-21T05:30:50;15.20;;;12.48;;
60068;SDS011;45945;53.350;55.922;2022-08-21T05:31:51;14.45;;;12.95;;
60068;SDS011;45945;53.350;55.922;2022-08-21T05:32:56;13.90;;;12.10;;
60068;SDS011;45945;53.350;55.922;2022-08-21T05:33:58;13.93;;;12.52;;
60068;SDS011;45945;53.350;55.922;2022-08-21T05:34:59;13.90;;;11.65;;
60068;SDS011;45945;53.350;55.922;2022-08-21T05:36:00;21.80;;;19.50;;
60068;SDS011;45945;53.350;55.922;2022-08-21T05:37:01;14.25;;;12.13;;
60068;SDS011;45945;53.350;55.922;2022-08-21T05:38:03;17.05;;;12.93;;
60068;SDS011;45945;53.350;55.922;2022-08-21T05:39:05;16.08;;;12.82;;
60068;SDS011;45945;53.350;55.922;2022-08-21T05:40:06;16.15;;;12.40;;
60068;SDS011;45945;53.350;55.922;2022-08-21T05:41:09;13.43;;;11.57;;
60068;SDS011;45945;53.350;55.922;2022-08-21T05:42:10;13.18;;;11.77;;
60068;SDS011;45945;53.350;55.922;2022-08-21T05:43:11;13.00;;;11.65;;
60068;SDS011;45945;53.350;55.922;2022-08-21T05:44:12;13.90;;;11.57;;
60068;SDS011;45945;53.350;55.922;2022-08-21T05:45:13;16.63;;;12.02;;
60068;SDS011;45945;53.350;55.922;2022-08-21T05:46:14;11.77;;;9.93;;
60068;SDS011;45945;53.350;55.922;2022-08-21T05:47:16;14.45;;;12.57;;
60068;SDS011;45945;53.350;55.922;2022-08-21T05:48:19;15.02;;;11.95;;
60068;SDS011;45945;53.350;55.922;2022-08-21T05:49:21;13.35;;;11.45;;
60068;SDS011;45945;53.350;55.922;2022-08-21T05:50:22;13.98;;;11.82;;
60068;SDS011;45945;53.350;55.922;2022-08-21T05:51:23;14.45;;;11.48;;
60068;SDS011;45945;53.350;55.922;2022-08-21T05:52:24;12.48;;;10.15;;
60068;SDS011;45945;53.350;55.922;2022-08-21T05:53:25;15.00;;;11.73;;
60068;SDS011;45945;53.350;55.922;2022-08-21T05:54:26;14.15;;;10.82;;
60068;SDS011;45945;53.350;55.922;2022-08-21T05:55:28;14.55;;;11.32;;
60068;SDS011;45945;53.350;55.922;2022-08-21T05:56:28;15.73;;;12.25;;
60068;SDS011;45945;53.350;55.922;2022-08-21T05:57:29;13.98;;;12.10;;
60068;SDS011;45945;53.350;55.922;2022-08-21T05:58:31;13.20;;;11.38;;
60068;SDS011;45945;53.350;55.922;2022-08-21T05:59:33;15.18;;;12.10;;